createdAt,value
2017-10-12T00:00:56.854Z,5.20
2017-10-12T00:03:25.074Z,10.40
2017-10-12T00:05:52.527Z,4.00
2017-10-12T00:08:20.018Z,8.37
2017-10-12T00:10:47.522Z,7.10
2017-10-12T00:13:14.989Z,3.17
2017-10-12T00:15:42.473Z,4.77
2017-10-12T00:18:09.961Z,5.27
2017-10-12T00:20:37.447Z,9.10
2017-10-12T00:23:04.896Z,4.13
2017-10-12T00:25:32.369Z,7.00
2017-10-12T00:27:59.867Z,11.20
2017-10-12T00:30:27.321Z,6.33
2017-10-12T00:32:54.777Z,5.47
2017-10-12T00:35:22.265Z,4.10
2017-10-12T00:37:49.713Z,8.57
2017-10-12T00:40:17.184Z,5.40
2017-10-12T00:42:44.653Z,6.60
2017-10-12T00:45:12.417Z,11.90
2017-10-12T00:47:40.658Z,12.37
2017-10-12T00:50:08.141Z,9.23
2017-10-12T00:52:35.599Z,13.17
2017-10-12T00:55:03.050Z,5.43
2017-10-12T00:57:30.538Z,7.70
2017-10-12T00:59:58.756Z,8.10
2017-10-12T01:02:26.206Z,4.87
2017-10-12T01:04:53.703Z,4.40
2017-10-12T01:07:21.146Z,6.67
2017-10-12T01:09:48.606Z,10.03
2017-10-12T01:12:16.096Z,6.87
2017-10-12T01:14:43.541Z,8.43
2017-10-12T01:17:10.989Z,7.30
2017-10-12T01:19:38.458Z,4.77
2017-10-12T01:22:05.934Z,5.83
2017-10-12T01:24:34.197Z,5.27
2017-10-12T01:27:01.655Z,5.30
2017-10-12T01:29:29.982Z,7.40
2017-10-12T01:31:57.462Z,6.17
2017-10-12T01:34:24.942Z,5.50
2017-10-12T01:36:52.413Z,8.10
2017-10-12T01:39:20.682Z,5.77
2017-10-12T01:41:49.418Z,12.13
2017-10-12T01:44:17.174Z,7.40
2017-10-12T01:46:44.614Z,6.33
2017-10-12T01:49:13.774Z,5.53
2017-10-12T01:51:41.262Z,7.30
2017-10-12T01:54:09.669Z,7.87
2017-10-12T01:56:37.145Z,12.70
2017-10-12T01:59:04.642Z,7.00
2017-10-12T02:01:32.114Z,11.83
2017-10-12T02:04:00.339Z,6.13
2017-10-12T02:06:27.831Z,8.70
2017-10-12T02:08:55.305Z,11.00
2017-10-12T02:11:23.892Z,5.80
2017-10-12T02:13:52.137Z,6.40
2017-10-12T02:16:19.622Z,8.63
2017-10-12T02:18:47.082Z,6.57
2017-10-12T02:21:15.319Z,3.40
2017-10-12T02:23:42.793Z,5.50
2017-10-12T02:26:10.261Z,4.87
2017-10-12T02:28:37.725Z,8.47
2017-10-12T02:31:05.182Z,10.33
2017-10-12T02:33:32.648Z,7.17
2017-10-12T02:36:00.101Z,10.80
2017-10-12T02:38:27.558Z,8.80
2017-10-12T02:40:55.035Z,11.10
2017-10-12T02:43:22.490Z,12.67
2017-10-12T02:45:49.973Z,12.23
2017-10-12T02:48:17.428Z,8.40
2017-10-12T02:50:44.925Z,12.10
2017-10-12T02:53:12.378Z,8.60
2017-10-12T02:55:40.593Z,3.53
2017-10-12T02:58:08.067Z,15.27
2017-10-12T03:00:35.617Z,11.20
2017-10-12T03:03:03.837Z,17.23
2017-10-12T03:05:31.318Z,17.10
2017-10-12T03:07:58.810Z,15.80
2017-10-12T03:10:27.037Z,17.33
2017-10-12T03:12:54.490Z,8.87
2017-10-12T03:15:21.969Z,11.70
2017-10-12T03:17:49.429Z,9.17
2017-10-12T03:20:16.918Z,17.63
2017-10-12T03:22:46.065Z,11.60
2017-10-12T03:25:13.553Z,22.87
2017-10-12T03:27:41.030Z,21.73
2017-10-12T03:30:08.603Z,10.07
2017-10-12T03:32:36.062Z,14.33
2017-10-12T03:35:03.549Z,11.90
2017-10-12T03:37:31.893Z,7.10
2017-10-12T03:39:59.367Z,10.20
2017-10-12T03:42:26.817Z,6.57
2017-10-12T03:44:54.294Z,32.47
2017-10-12T03:47:21.745Z,20.73
2017-10-12T03:49:49.205Z,23.20
2017-10-12T03:52:16.685Z,13.07
2017-10-12T03:54:44.136Z,7.47
2017-10-12T03:57:11.595Z,25.83
2017-10-12T03:59:39.137Z,8.90
2017-10-12T04:02:06.590Z,25.77
2017-10-12T04:04:34.050Z,21.70
2017-10-12T04:07:01.517Z,17.73
2017-10-12T04:09:28.971Z,8.03
2017-10-12T04:11:56.430Z,23.10
2017-10-12T04:14:23.921Z,17.10
2017-10-12T04:16:51.377Z,16.83
2017-10-12T04:19:18.852Z,22.00
2017-10-12T04:21:46.335Z,15.60
2017-10-12T04:24:13.794Z,16.80
2017-10-12T04:26:41.289Z,27.20
2017-10-12T04:29:08.796Z,28.27
2017-10-12T04:31:37.029Z,9.20
2017-10-12T04:34:04.501Z,12.40
2017-10-12T04:36:31.986Z,27.23
2017-10-12T04:39:00.247Z,8.13
2017-10-12T04:41:27.701Z,16.47
2017-10-12T04:43:55.161Z,21.83
2017-10-12T04:46:22.633Z,27.67
2017-10-12T04:48:50.110Z,20.27
2017-10-12T04:51:18.358Z,17.93
2017-10-12T04:53:46.742Z,14.40
2017-10-12T04:56:14.213Z,19.93
2017-10-12T04:58:41.661Z,19.43
2017-10-12T05:01:09.140Z,23.20
2017-10-12T05:03:36.593Z,15.10
2017-10-12T05:06:04.802Z,22.90
2017-10-12T05:08:33.069Z,23.13
2017-10-12T05:11:00.575Z,26.47
2017-10-12T05:13:28.036Z,10.83
2017-10-12T05:15:55.493Z,22.63
2017-10-12T05:18:22.971Z,40.57
2017-10-12T05:20:50.464Z,22.60
2017-10-12T05:23:17.909Z,19.87
2017-10-12T05:25:45.413Z,25.33
2017-10-12T05:28:12.868Z,16.53
2017-10-12T05:30:40.340Z,19.93
2017-10-12T05:33:08.127Z,17.97
2017-10-12T05:35:35.646Z,19.53
2017-10-12T05:38:03.126Z,31.63
2017-10-12T05:40:30.597Z,26.37
2017-10-12T05:42:59.099Z,31.65
2017-10-12T05:45:26.878Z,21.07
2017-10-12T05:47:54.332Z,11.70
2017-10-12T05:50:21.864Z,20.37
2017-10-12T05:52:50.249Z,21.33
2017-10-12T05:55:18.760Z,27.65
2017-10-12T05:57:46.224Z,23.87
2017-10-12T06:00:15.053Z,31.73
2017-10-12T06:02:42.618Z,22.00
2017-10-12T06:05:10.078Z,31.73
2017-10-12T06:07:37.574Z,24.00
2017-10-12T06:10:05.092Z,31.67
2017-10-12T06:12:32.571Z,22.13
2017-10-12T06:15:00.396Z,23.13
2017-10-12T06:17:27.865Z,7.10
2017-10-12T06:19:55.704Z,24.57
2017-10-12T06:22:23.649Z,17.07
2017-10-12T06:24:51.201Z,34.77
2017-10-12T06:27:19.489Z,15.87
2017-10-12T06:29:47.077Z,27.37
2017-10-12T06:32:14.553Z,15.43
2017-10-12T06:34:42.140Z,17.70
2017-10-12T06:37:09.606Z,22.90
2017-10-12T06:39:37.077Z,24.43
2017-10-12T06:42:05.710Z,24.10
2017-10-12T06:44:33.252Z,24.77
2017-10-12T06:47:01.083Z,19.10
2017-10-12T06:49:29.452Z,30.17
2017-10-12T06:51:56.945Z,35.57
2017-10-12T06:54:24.695Z,28.37
2017-10-12T06:56:52.530Z,17.87
2017-10-12T06:59:20.797Z,22.00
2017-10-12T07:01:49.079Z,19.02
2017-10-12T07:04:16.558Z,32.47
2017-10-12T07:06:44.076Z,29.43
2017-10-12T07:09:11.770Z,40.77
2017-10-12T07:11:39.408Z,25.60
2017-10-12T07:14:06.904Z,21.40
2017-10-12T07:16:34.357Z,27.93
2017-10-12T07:19:02.081Z,17.80
2017-10-12T07:21:29.558Z,13.27
2017-10-12T07:23:58.071Z,16.13
2017-10-12T07:26:26.413Z,19.53
2017-10-12T07:28:54.132Z,13.73
2017-10-12T07:31:22.101Z,37.73
2017-10-12T07:33:49.733Z,33.72
2017-10-12T07:36:17.609Z,22.10
2017-10-12T07:38:45.595Z,9.60
2017-10-12T07:41:13.076Z,12.33
2017-10-12T07:43:40.573Z,21.17
2017-10-12T07:46:08.143Z,13.80
2017-10-12T07:48:35.862Z,27.23
2017-10-12T07:51:03.496Z,16.83
2017-10-12T07:53:31.332Z,29.40
2017-10-12T07:55:58.858Z,37.37
2017-10-12T07:58:26.616Z,9.17
2017-10-12T08:00:54.065Z,14.53
2017-10-12T08:03:21.684Z,12.93
2017-10-12T08:05:51.115Z,10.27
2017-10-12T08:08:18.730Z,15.27
2017-10-12T08:10:46.710Z,20.87
2017-10-12T08:13:15.115Z,31.07
2017-10-12T08:15:43.185Z,24.40
2017-10-12T08:18:10.763Z,9.03
2017-10-12T08:20:38.502Z,16.13
2017-10-12T08:23:06.130Z,19.57
2017-10-12T08:25:33.615Z,21.33
2017-10-12T08:28:01.244Z,16.17
2017-10-12T08:30:28.802Z,30.00
2017-10-12T08:32:56.382Z,10.87
2017-10-12T08:35:23.896Z,45.13
2017-10-12T08:37:51.341Z,30.13
2017-10-12T08:40:18.878Z,21.30
2017-10-12T08:42:46.389Z,17.33
2017-10-12T08:45:14.047Z,32.80
2017-10-12T08:47:41.509Z,17.40
2017-10-12T08:50:08.977Z,27.10
2017-10-12T08:52:36.449Z,20.60
2017-10-12T08:55:03.961Z,27.57
2017-10-12T08:57:32.197Z,20.17
2017-10-12T08:59:59.760Z,16.73
2017-10-12T09:02:27.249Z,14.63
2017-10-12T09:04:55.463Z,11.73
2017-10-12T09:07:22.905Z,24.97
2017-10-12T09:09:51.069Z,12.43
2017-10-12T09:12:18.513Z,15.63
2017-10-12T09:14:46.738Z,24.60
2017-10-12T09:17:14.241Z,24.23
2017-10-12T09:19:42.489Z,13.03
2017-10-12T09:22:09.980Z,20.57
2017-10-12T09:24:37.456Z,19.57
2017-10-12T09:27:04.969Z,15.53
2017-10-12T09:29:33.185Z,26.17
2017-10-12T09:32:00.657Z,16.50
2017-10-12T09:34:28.109Z,20.13
2017-10-12T09:36:55.717Z,14.67
2017-10-12T09:39:23.209Z,24.47
2017-10-12T09:41:51.600Z,20.30
2017-10-12T09:44:20.204Z,15.97
2017-10-12T09:46:47.673Z,20.33
2017-10-12T09:49:15.141Z,21.97
2017-10-12T09:51:42.590Z,13.50
2017-10-12T09:54:10.178Z,14.10
2017-10-12T09:56:38.016Z,25.63
2017-10-12T09:59:05.589Z,7.77
2017-10-12T10:01:33.231Z,19.83
2017-10-12T10:04:00.808Z,8.20
2017-10-12T10:06:28.256Z,13.40
2017-10-12T10:08:55.734Z,7.73
2017-10-12T10:11:23.176Z,3.73
2017-10-12T10:13:50.660Z,13.83
2017-10-12T10:16:18.159Z,9.20
2017-10-12T10:18:46.469Z,13.00
2017-10-12T10:21:13.950Z,10.80
2017-10-12T10:23:41.402Z,6.53
2017-10-12T10:26:09.123Z,11.63
2017-10-12T10:28:36.656Z,7.10
2017-10-12T10:31:04.342Z,8.20
2017-10-12T10:33:32.160Z,15.13
2017-10-12T10:35:59.823Z,17.57
2017-10-12T10:38:27.600Z,10.30
2017-10-12T10:40:55.364Z,19.70
2017-10-12T10:43:22.962Z,2.90
2017-10-12T10:45:50.617Z,6.20
2017-10-12T10:48:18.256Z,14.17
2017-10-12T10:50:45.803Z,11.33
2017-10-12T10:53:13.276Z,6.37
2017-10-12T10:55:41.245Z,14.52
2017-10-12T10:58:09.787Z,13.40
2017-10-12T11:00:38.008Z,6.40
2017-10-12T11:03:05.592Z,4.80
2017-10-12T11:05:34.097Z,11.23
2017-10-12T11:08:01.798Z,20.50
2017-10-12T11:10:29.450Z,18.33
2017-10-12T11:12:57.041Z,11.10
2017-10-12T11:15:24.572Z,9.87
2017-10-12T11:17:52.058Z,6.40
2017-10-12T11:20:19.508Z,6.00
2017-10-12T11:22:46.958Z,5.63
2017-10-12T11:25:14.441Z,9.77
2017-10-12T11:27:42.725Z,12.10
2017-10-12T11:30:11.018Z,14.37
2017-10-12T11:32:38.460Z,6.93
2017-10-12T11:35:06.700Z,6.23
2017-10-12T11:37:34.153Z,9.40
2017-10-12T11:40:01.619Z,10.23
2017-10-12T11:42:29.090Z,11.87
2017-10-12T11:44:56.570Z,8.23
2017-10-12T11:47:24.826Z,3.77
2017-10-12T11:49:52.652Z,12.20
2017-10-12T11:52:20.436Z,11.80
2017-10-12T11:54:48.019Z,8.27
2017-10-12T11:57:15.793Z,6.07
2017-10-12T11:59:43.648Z,4.20
2017-10-12T12:02:12.839Z,4.80
2017-10-12T12:04:41.729Z,6.77
2017-10-12T12:07:09.531Z,5.03
2017-10-12T12:09:37.049Z,8.27
2017-10-12T12:12:04.860Z,10.67
2017-10-12T12:14:32.385Z,5.00
2017-10-12T12:16:59.849Z,7.80
2017-10-12T12:19:27.349Z,14.67
2017-10-12T12:21:55.249Z,2.03
2017-10-12T12:24:22.879Z,3.20
2017-10-12T12:26:50.437Z,7.60
2017-10-12T12:29:18.069Z,15.77
2017-10-12T12:31:45.513Z,4.30
2017-10-12T12:34:13.307Z,11.33
2017-10-12T12:36:41.029Z,3.87
2017-10-12T12:39:08.717Z,5.07
2017-10-12T12:41:36.317Z,2.90
2017-10-12T12:44:03.775Z,3.90
2017-10-12T12:46:31.676Z,5.90
2017-10-12T12:48:59.167Z,8.57
2017-10-12T12:51:26.669Z,4.80
2017-10-12T12:53:54.601Z,5.30
2017-10-12T12:56:22.428Z,8.83
2017-10-12T12:58:50.817Z,8.20
2017-10-12T13:01:18.361Z,15.00
2017-10-12T13:03:45.881Z,7.97
2017-10-12T13:06:14.273Z,11.43
2017-10-12T13:08:41.825Z,4.63
2017-10-12T13:11:09.573Z,3.10
2017-10-12T13:13:37.255Z,3.57
2017-10-12T13:16:05.501Z,7.43
2017-10-12T13:18:33.253Z,20.85
2017-10-12T13:21:01.659Z,11.00
2017-10-12T13:23:30.047Z,6.00
2017-10-12T13:25:57.683Z,8.60
2017-10-12T13:28:25.586Z,7.70
2017-10-12T13:30:53.106Z,8.20
2017-10-12T13:33:20.641Z,4.80
2017-10-12T13:35:48.392Z,9.43
2017-10-12T13:38:15.876Z,6.60
2017-10-12T13:40:43.664Z,14.07
2017-10-12T13:43:11.207Z,4.50
2017-10-12T13:45:38.768Z,8.20
2017-10-12T13:48:06.432Z,6.30
2017-10-12T13:50:34.830Z,6.40
2017-10-12T13:53:02.365Z,8.97
2017-10-12T13:55:30.038Z,6.17
2017-10-12T13:57:58.446Z,5.93
2017-10-12T14:00:25.948Z,4.87
2017-10-12T14:02:53.820Z,9.23
2017-10-12T14:05:22.301Z,2.67
2017-10-12T14:07:49.930Z,17.27
2017-10-12T14:10:17.563Z,5.20
2017-10-12T14:12:45.173Z,3.97
2017-10-12T14:15:12.708Z,12.80
2017-10-12T14:17:40.954Z,10.50
2017-10-12T14:20:08.422Z,12.30
2017-10-12T14:22:35.872Z,5.90
2017-10-12T14:25:03.338Z,8.33
2017-10-12T14:27:30.789Z,5.23
2017-10-12T14:29:58.262Z,5.83
2017-10-12T14:32:26.150Z,13.07
2017-10-12T14:34:53.596Z,9.17
2017-10-12T14:37:21.079Z,6.67
2017-10-12T14:39:48.529Z,6.87
2017-10-12T14:42:15.996Z,3.10
2017-10-12T14:44:43.445Z,5.33
2017-10-12T14:47:10.917Z,7.33
2017-10-12T14:49:38.457Z,10.33
2017-10-12T14:52:05.937Z,6.33
2017-10-12T14:54:33.377Z,4.10
2017-10-12T14:57:00.830Z,7.53
2017-10-12T14:59:28.308Z,14.90
2017-10-12T15:01:56.700Z,18.90
2017-10-12T15:04:24.174Z,4.80
2017-10-12T15:06:51.617Z,5.47
2017-10-12T15:09:19.098Z,9.07
2017-10-12T15:11:46.773Z,5.97
2017-10-12T15:14:14.273Z,8.60
2017-10-12T15:16:42.020Z,6.50
2017-10-12T15:19:10.282Z,9.60
2017-10-12T15:21:37.803Z,11.43
2017-10-12T15:24:05.706Z,7.33
2017-10-12T15:26:33.381Z,9.77
2017-10-12T15:29:02.073Z,5.73
2017-10-12T15:31:29.589Z,5.10
2017-10-12T15:33:57.245Z,8.00
2017-10-12T15:36:25.542Z,7.00
2017-10-12T15:38:53.089Z,17.50
2017-10-12T15:41:21.886Z,14.80
2017-10-12T15:43:49.366Z,9.20
2017-10-12T15:46:17.300Z,4.67
2017-10-12T15:48:45.210Z,6.90
2017-10-12T15:51:12.684Z,12.80
2017-10-12T15:53:40.300Z,6.30
2017-10-12T15:56:08.013Z,10.80
2017-10-12T15:58:35.496Z,9.30
2017-10-12T16:01:03.073Z,6.80
2017-10-12T16:03:30.757Z,5.40
2017-10-12T16:05:58.242Z,8.07
2017-10-12T16:08:26.719Z,8.27
2017-10-12T16:10:54.363Z,9.53
2017-10-12T16:13:22.312Z,3.87
2017-10-12T16:15:49.960Z,7.30
2017-10-12T16:18:17.737Z,6.03
2017-10-12T16:20:45.534Z,8.10
2017-10-12T16:23:13.245Z,6.00
2017-10-12T16:25:40.717Z,6.93
2017-10-12T16:28:08.197Z,4.23
2017-10-12T16:30:35.758Z,5.53
2017-10-12T16:35:31.093Z,6.60
2017-10-12T16:37:58.612Z,7.00
2017-10-12T16:40:26.490Z,5.10
2017-10-12T16:42:54.780Z,5.03
2017-10-12T16:45:22.366Z,5.27
2017-10-12T16:47:49.925Z,9.57
2017-10-12T16:50:17.377Z,3.63
2017-10-12T16:52:44.856Z,7.30
2017-10-12T16:55:13.129Z,7.57
2017-10-12T16:57:41.349Z,6.87
2017-10-12T17:00:08.949Z,8.03
2017-10-12T17:02:36.559Z,6.60
2017-10-12T17:05:04.214Z,4.23
2017-10-12T17:07:32.444Z,7.87
2017-10-12T17:10:00.023Z,15.13
2017-10-12T17:12:27.493Z,22.83
2017-10-12T17:14:55.017Z,9.13
2017-10-12T17:17:22.661Z,4.77
2017-10-12T17:19:51.068Z,11.97
2017-10-12T17:22:18.788Z,14.33
2017-10-12T17:24:47.164Z,17.43
2017-10-12T17:27:14.670Z,15.70
2017-10-12T17:29:42.355Z,18.40
2017-10-12T17:32:09.901Z,21.90
2017-10-12T17:34:37.769Z,13.53
2017-10-12T17:37:05.331Z,19.00
2017-10-12T17:42:07.242Z,20.23
2017-10-12T17:44:35.232Z,12.50
2017-10-12T17:47:02.968Z,16.63
2017-10-12T17:49:30.659Z,13.90
2017-10-12T17:51:58.309Z,15.27
2017-10-12T17:54:40.903Z,24.10
2017-10-12T17:56:53.899Z,17.83
2017-10-12T17:59:23.278Z,19.10
2017-10-12T18:01:51.131Z,19.27
2017-10-12T18:04:49.167Z,15.40
2017-10-12T18:06:47.693Z,22.40
2017-10-12T18:11:44.040Z,32.10
2017-10-12T18:14:11.635Z,35.27
2017-10-12T18:16:40.237Z,26.20
2017-10-12T18:19:07.746Z,20.30
2017-10-12T18:21:35.225Z,19.73
2017-10-12T18:24:02.675Z,31.23
2017-10-12T18:26:30.812Z,19.33
2017-10-12T18:28:58.663Z,14.90
2017-10-12T18:31:26.176Z,13.97
2017-10-12T18:33:54.536Z,19.17
2017-10-12T18:36:22.128Z,16.13
2017-10-12T18:38:49.949Z,18.23
2017-10-12T18:41:17.796Z,19.13
2017-10-12T18:43:46.109Z,15.90
2017-10-12T18:46:13.896Z,13.60
2017-10-12T18:48:41.695Z,11.53
2017-10-12T18:51:10.037Z,12.23
2017-10-12T18:53:37.798Z,12.40
2017-10-12T18:56:05.435Z,10.20
2017-10-12T18:58:33.025Z,10.27
2017-10-12T19:01:01.179Z,12.13
2017-10-12T19:03:29.460Z,12.13
2017-10-12T19:05:57.000Z,8.63
2017-10-12T19:08:24.661Z,7.43
2017-10-12T19:10:52.533Z,23.67
2017-10-12T19:13:20.300Z,20.03
2017-10-12T19:18:12.230Z,12.70
2017-10-12T19:20:39.712Z,17.47
2017-10-12T19:23:07.173Z,11.97
2017-10-12T19:25:34.678Z,15.67
2017-10-12T19:30:29.685Z,14.70
2017-10-12T19:32:57.273Z,15.97
2017-10-12T19:35:24.786Z,9.60
2017-10-12T19:37:52.388Z,14.87
2017-10-12T19:40:19.889Z,11.93
2017-10-12T19:42:47.369Z,11.97
2017-10-12T19:45:15.016Z,11.37
2017-10-12T19:47:43.804Z,9.10
2017-10-12T19:50:11.520Z,10.17
2017-10-12T19:52:39.884Z,17.43
2017-10-12T19:55:08.708Z,22.17
2017-10-12T19:57:36.201Z,15.60
2017-10-12T20:00:03.713Z,20.50
2017-10-12T20:02:33.304Z,20.97
2017-10-12T20:05:02.470Z,23.83
2017-10-12T20:07:29.931Z,18.90
2017-10-12T20:09:57.401Z,20.70
2017-10-12T20:12:24.858Z,20.60
2017-10-12T20:14:52.334Z,16.47
2017-10-12T20:17:19.786Z,22.13
2017-10-12T20:19:47.293Z,31.00
2017-10-12T20:22:14.762Z,26.03
2017-10-12T20:24:42.215Z,23.83
2017-10-12T20:27:25.424Z,27.17
2017-10-12T20:29:52.878Z,28.70
2017-10-12T20:32:20.366Z,24.10
2017-10-12T20:34:47.842Z,26.17
2017-10-12T20:37:15.316Z,25.83
2017-10-12T20:39:42.774Z,29.03
2017-10-12T20:42:13.846Z,24.03
2017-10-12T20:44:38.315Z,21.10
2017-10-12T20:47:05.770Z,14.23
2017-10-12T20:49:33.242Z,22.20
2017-10-12T20:52:01.487Z,22.40
2017-10-12T20:54:28.942Z,19.60
2017-10-12T20:56:56.436Z,16.10
2017-10-12T20:59:24.657Z,21.93
2017-10-12T21:01:52.133Z,22.37
2017-10-12T21:04:19.657Z,22.23
2017-10-12T21:06:47.109Z,23.87
2017-10-12T21:09:14.567Z,18.13
2017-10-12T21:11:42.053Z,19.80
2017-10-12T21:14:09.500Z,16.90
2017-10-12T21:16:36.956Z,24.43
2017-10-12T21:19:04.435Z,18.83
2017-10-12T21:21:31.897Z,26.40
2017-10-12T21:23:59.349Z,21.97
2017-10-12T21:26:26.829Z,25.73
2017-10-12T21:28:54.285Z,24.30
2017-10-12T21:31:21.799Z,24.50
2017-10-12T21:33:49.266Z,17.53
2017-10-12T21:36:16.726Z,24.73
2017-10-12T21:38:44.193Z,21.27
2017-10-12T21:41:11.648Z,20.47
2017-10-12T21:43:39.124Z,23.07
2017-10-12T21:46:06.578Z,13.20
2017-10-12T21:48:34.089Z,20.57
2017-10-12T21:51:01.546Z,18.03
2017-10-12T21:53:29.038Z,35.50
2017-10-12T21:55:56.487Z,16.27
2017-10-12T21:58:23.974Z,22.23
2017-10-12T22:00:51.422Z,17.53
2017-10-12T22:03:18.874Z,16.87
2017-10-12T22:05:46.356Z,22.97
2017-10-12T22:08:13.844Z,23.17
2017-10-12T22:10:41.389Z,26.47
2017-10-12T22:13:08.847Z,26.13
2017-10-12T22:15:36.330Z,26.87
2017-10-12T22:18:05.146Z,22.42
2017-10-12T22:20:32.673Z,19.40
2017-10-12T22:23:00.918Z,21.40
2017-10-12T22:25:28.373Z,23.07
2017-10-12T22:27:55.846Z,12.70
2017-10-12T22:30:23.302Z,25.67
2017-10-12T22:32:50.779Z,26.67
2017-10-12T22:35:18.997Z,24.47
2017-10-12T22:37:46.469Z,24.03
2017-10-12T22:40:13.956Z,23.60
2017-10-12T22:42:41.416Z,17.57
2017-10-12T22:45:08.893Z,25.87
2017-10-12T22:47:37.125Z,20.20
2017-10-12T22:50:04.939Z,23.12
2017-10-12T22:52:32.434Z,15.10
2017-10-12T22:54:59.881Z,16.97
2017-10-12T22:57:27.342Z,19.80
2017-10-12T22:59:54.817Z,26.90
2017-10-12T23:02:22.289Z,15.23
2017-10-12T23:04:49.765Z,20.77
2017-10-12T23:07:17.225Z,19.60
2017-10-12T23:09:44.721Z,23.70
2017-10-12T23:12:12.169Z,30.53
2017-10-12T23:14:39.626Z,24.97
2017-10-12T23:17:07.097Z,27.63
2017-10-12T23:19:36.344Z,26.73
2017-10-12T23:22:03.798Z,27.70
2017-10-12T23:24:31.273Z,24.00
2017-10-12T23:26:59.493Z,18.97
2017-10-12T23:29:26.968Z,43.73
2017-10-12T23:31:54.425Z,17.37
2017-10-12T23:34:21.905Z,27.47
2017-10-12T23:36:49.366Z,31.60
2017-10-12T23:39:16.829Z,22.10
2017-10-12T23:41:44.298Z,26.07
2017-10-12T23:44:11.757Z,29.40
2017-10-12T23:46:40.011Z,25.13
2017-10-12T23:49:07.475Z,16.70
2017-10-12T23:51:34.930Z,17.80
2017-10-12T23:54:02.415Z,36.87
2017-10-12T23:56:30.629Z,31.67
2017-10-12T23:58:58.111Z,23.47
